createdAt,value
2023-02-16T00:00:45.552Z,22.10
2023-02-16T00:06:14.597Z,21.00
2023-02-16T00:11:46.182Z,20.80
2023-02-16T00:16:51.004Z,23.40
2023-02-16T00:21:56.625Z,23.00
2023-02-16T00:27:01.138Z,21.20
2023-02-16T00:32:06.389Z,20.80
2023-02-16T00:37:13.365Z,22.70
2023-02-16T00:42:24.673Z,22.60
2023-02-16T00:47:35.024Z,21.70
2023-02-16T00:52:46.547Z,21.90
2023-02-16T00:58:18.006Z,22.30
2023-02-16T01:03:25.274Z,23.00
2023-02-16T01:08:47.526Z,23.10
2023-02-16T01:13:52.271Z,20.90
2023-02-16T01:18:55.633Z,21.50
2023-02-16T01:23:59.044Z,21.60
2023-02-16T01:29:02.439Z,21.10
2023-02-16T01:34:06.301Z,19.40
2023-02-16T01:39:14.741Z,20.90
2023-02-16T01:44:25.967Z,21.30
2023-02-16T01:49:29.470Z,20.70
2023-02-16T01:54:51.268Z,17.50
2023-02-16T01:59:54.616Z,17.60
2023-02-16T02:05:35.788Z,20.60
2023-02-16T02:11:07.423Z,22.00
2023-02-16T02:16:11.649Z,21.60
2023-02-16T02:22:27.200Z,21.00
2023-02-16T02:28:01.819Z,22.60
2023-02-16T02:33:11.110Z,18.90
2023-02-16T02:38:14.720Z,16.70
2023-02-16T02:43:39.297Z,20.20
2023-02-16T02:48:42.730Z,22.80
2023-02-16T02:54:12.148Z,19.60
2023-02-16T02:59:34.252Z,17.80
2023-02-16T03:04:37.657Z,17.80
2023-02-16T03:09:41.223Z,18.10
2023-02-16T03:14:50.293Z,24.50
2023-02-16T03:20:13.192Z,18.70
2023-02-16T03:25:36.043Z,22.20
2023-02-16T03:30:39.687Z,20.40
2023-02-16T03:35:45.380Z,24.40
2023-02-16T03:40:50.998Z,20.60
2023-02-16T03:45:55.801Z,18.80
2023-02-16T03:50:59.167Z,17.90
2023-02-16T03:56:02.437Z,19.60
2023-02-16T04:01:06.133Z,23.00
2023-02-16T04:06:10.230Z,20.60
2023-02-16T04:11:32.295Z,21.60
2023-02-16T04:16:35.630Z,23.50
2023-02-16T04:21:39.043Z,24.00
2023-02-16T04:26:42.400Z,24.80
2023-02-16T04:31:45.887Z,28.30
2023-02-16T04:36:49.508Z,20.80
2023-02-16T04:41:53.460Z,23.80
2023-02-16T04:46:57.015Z,18.60
2023-02-16T04:52:01.832Z,26.00
2023-02-16T04:57:05.849Z,23.80
2023-02-16T05:02:09.394Z,22.00
2023-02-16T05:07:12.748Z,21.80
2023-02-16T05:12:34.625Z,23.70
2023-02-16T05:17:38.120Z,26.00
2023-02-16T05:22:41.737Z,22.30
2023-02-16T05:27:45.106Z,23.70
2023-02-16T05:32:48.401Z,20.90
2023-02-16T05:37:51.823Z,22.90
2023-02-16T05:42:55.693Z,17.10
2023-02-16T05:47:59.109Z,21.40
2023-02-16T05:53:02.559Z,23.70
2023-02-16T05:58:06.608Z,22.90
2023-02-16T06:03:09.982Z,23.40
2023-02-16T06:08:13.575Z,23.60
2023-02-16T06:13:17.702Z,23.90
2023-02-16T06:18:21.135Z,20.10
2023-02-16T06:23:24.415Z,18.30
2023-02-16T06:28:28.016Z,22.50
2023-02-16T06:33:31.433Z,22.30
2023-02-16T06:38:35.133Z,22.20
2023-02-16T06:43:42.050Z,27.90
2023-02-16T06:48:46.334Z,23.30
2023-02-16T06:53:51.141Z,22.80
2023-02-16T06:58:54.623Z,22.20
2023-02-16T07:03:59.403Z,21.50
2023-02-16T07:09:16.401Z,19.40
2023-02-16T07:14:32.722Z,20.60
2023-02-16T07:19:47.927Z,20.40
2023-02-16T07:24:51.585Z,25.00
2023-02-16T07:29:55.028Z,21.30
2023-02-16T07:34:58.415Z,19.70
2023-02-16T07:40:01.845Z,20.40
2023-02-16T07:45:09.815Z,17.20
2023-02-16T07:50:14.070Z,15.80
2023-02-16T07:55:17.667Z,20.30
2023-02-16T08:00:22.040Z,20.60
2023-02-16T08:05:29.100Z,20.70
2023-02-16T08:10:33.153Z,18.60
2023-02-16T08:15:49.555Z,18.80
2023-02-16T08:21:03.922Z,19.60
2023-02-16T08:26:17.375Z,21.80
2023-02-16T08:31:41.566Z,23.00
2023-02-16T08:42:33.940Z,23.10
2023-02-16T08:47:37.207Z,21.60
2023-02-16T08:52:41.449Z,18.70
2023-02-16T08:57:44.967Z,22.40
2023-02-16T09:02:48.354Z,20.10
2023-02-16T09:07:58.867Z,17.50
2023-02-16T09:13:02.300Z,26.20
2023-02-16T09:18:05.889Z,23.20
2023-02-16T09:23:13.498Z,18.20
2023-02-16T09:28:17.349Z,21.30
2023-02-16T09:33:22.057Z,17.20
2023-02-16T09:38:28.150Z,20.10
2023-02-16T09:43:47.716Z,24.20
2023-02-16T09:48:53.190Z,24.30
2023-02-16T09:54:14.775Z,16.50
2023-02-16T09:59:41.288Z,20.60
2023-02-16T10:05:02.902Z,26.00
2023-02-16T10:10:08.366Z,22.50
2023-02-16T10:15:27.211Z,24.90
2023-02-16T10:20:38.089Z,24.60
2023-02-16T10:25:55.154Z,24.00
2023-02-16T10:31:06.578Z,20.10
2023-02-16T10:36:42.842Z,18.30
2023-02-16T10:41:56.335Z,20.70
2023-02-16T10:47:04.835Z,24.60
2023-02-16T10:52:09.423Z,22.00
2023-02-16T10:57:40.088Z,23.80
2023-02-16T11:02:59.064Z,22.90
2023-02-16T11:08:03.752Z,24.00
2023-02-16T11:13:35.178Z,26.40
2023-02-16T11:18:46.241Z,22.70
2023-02-16T11:24:04.431Z,21.80
2023-02-16T11:35:23.001Z,22.80
2023-02-16T11:40:31.089Z,25.30
2023-02-16T11:45:36.802Z,22.80
2023-02-16T11:50:55.649Z,23.60
2023-02-16T11:56:22.629Z,20.00
2023-02-16T12:01:41.437Z,22.20
2023-02-16T12:06:52.253Z,24.80
2023-02-16T12:11:58.544Z,24.70
2023-02-16T12:17:18.070Z,20.90
2023-02-16T12:22:55.433Z,23.00
2023-02-16T12:28:34.080Z,23.40
2023-02-16T12:33:43.782Z,22.30
2023-02-16T12:39:00.153Z,16.80
2023-02-16T12:44:11.322Z,23.70
2023-02-16T12:49:21.941Z,23.20
2023-02-16T12:54:48.932Z,24.00
2023-02-16T13:00:30.645Z,17.10
2023-02-16T13:05:40.749Z,22.20
2023-02-16T13:10:58.017Z,22.30
2023-02-16T13:16:30.796Z,24.20
2023-02-16T13:21:54.882Z,20.40
2023-02-16T13:27:22.176Z,21.40
2023-02-16T13:32:45.236Z,25.00
2023-02-16T13:38:03.348Z,26.00
2023-02-16T13:43:36.960Z,23.20
2023-02-16T13:48:48.340Z,21.40
2023-02-16T13:54:03.537Z,25.00
2023-02-16T13:59:19.654Z,25.20
2023-02-16T14:04:23.409Z,22.20
2023-02-16T14:09:39.179Z,25.60
2023-02-16T14:14:43.345Z,26.50
2023-02-16T14:19:58.302Z,26.80
2023-02-16T14:25:06.736Z,27.30
2023-02-16T14:30:21.877Z,28.20
2023-02-16T14:35:34.240Z,28.10
2023-02-16T14:40:48.578Z,27.90
2023-02-16T14:46:02.454Z,26.80
2023-02-16T14:51:29.296Z,30.20
2023-02-16T14:56:55.916Z,27.70
2023-02-16T15:02:00.158Z,25.90
2023-02-16T15:07:06.576Z,29.40
2023-02-16T15:12:22.865Z,29.40
2023-02-16T15:17:35.732Z,25.60
2023-02-16T15:22:44.989Z,31.60
2023-02-16T15:28:00.605Z,29.00
2023-02-16T15:33:07.810Z,31.50
2023-02-16T15:38:25.102Z,34.30
2023-02-16T15:43:47.119Z,32.30
2023-02-16T15:48:51.211Z,31.40
2023-02-16T15:54:04.116Z,35.00
2023-02-16T15:59:28.312Z,38.60
2023-02-16T16:04:38.911Z,36.10
2023-02-16T16:09:44.015Z,37.80
2023-02-16T16:15:10.454Z,33.20
2023-02-16T16:20:32.702Z,38.80
2023-02-16T16:25:47.053Z,34.50
2023-02-16T16:31:08.422Z,41.00
2023-02-16T16:36:12.863Z,42.70
2023-02-16T16:41:28.010Z,42.00
2023-02-16T16:46:33.440Z,42.70
2023-02-16T16:51:41.458Z,46.00
2023-02-16T16:56:44.921Z,48.70
2023-02-16T17:01:54.971Z,46.90
2023-02-16T17:07:04.451Z,50.70
2023-02-16T17:12:12.390Z,46.70
2023-02-16T17:17:19.314Z,48.70
2023-02-16T17:22:22.947Z,47.70
2023-02-16T17:27:26.643Z,50.10
2023-02-16T17:32:30.503Z,48.20
2023-02-16T17:37:36.422Z,45.50
2023-02-16T17:42:42.709Z,51.60
2023-02-16T17:47:49.839Z,46.80
2023-02-16T17:52:57.541Z,48.00
2023-02-16T17:58:01.865Z,48.10
2023-02-16T18:03:07.418Z,55.50
2023-02-16T18:08:15.053Z,51.10
2023-02-16T18:13:19.391Z,48.00
2023-02-16T18:18:23.139Z,50.50
2023-02-16T18:23:26.681Z,54.00
2023-02-16T18:28:33.674Z,58.00
2023-02-16T18:33:37.321Z,51.30
2023-02-16T18:38:41.978Z,66.90
2023-02-16T18:43:46.434Z,62.40
2023-02-16T18:48:49.871Z,56.60
2023-02-16T18:53:54.528Z,62.40
2023-02-16T18:58:58.171Z,66.00
2023-02-16T19:04:03.280Z,56.30
2023-02-16T19:09:07.804Z,42.80
2023-02-16T19:14:13.010Z,46.20
2023-02-16T19:19:16.622Z,42.40
2023-02-16T19:24:20.154Z,33.20
2023-02-16T19:29:24.063Z,43.50
2023-02-16T19:34:28.383Z,42.70
2023-02-16T19:39:32.783Z,37.60
2023-02-16T19:44:40.512Z,38.00
2023-02-16T19:49:44.432Z,30.10
2023-02-16T19:54:48.416Z,40.10
2023-02-16T19:59:51.956Z,41.20
2023-02-16T20:04:55.328Z,43.10
2023-02-16T20:09:58.694Z,54.40
2023-02-16T20:15:02.075Z,48.70
2023-02-16T20:20:06.254Z,43.60
2023-02-16T20:25:09.760Z,41.60
2023-02-16T20:30:20.179Z,41.60
2023-02-16T20:35:24.076Z,47.10
2023-02-16T20:40:27.919Z,42.60
2023-02-16T20:45:31.819Z,43.00
2023-02-16T20:50:35.308Z,41.20
2023-02-16T20:55:38.838Z,40.70
2023-02-16T21:00:44.978Z,35.50
2023-02-16T21:05:48.388Z,40.20
2023-02-16T21:10:51.729Z,34.50
2023-02-16T21:15:55.149Z,36.30
2023-02-16T21:21:01.097Z,39.00
2023-02-16T21:26:06.476Z,34.30
2023-02-16T21:31:14.614Z,34.30
2023-02-16T21:36:25.106Z,30.40
2023-02-16T21:41:29.655Z,33.00
2023-02-16T21:46:37.142Z,32.30
2023-02-16T21:51:42.032Z,31.30
2023-02-16T21:56:51.828Z,24.10
2023-02-16T22:01:55.159Z,30.70
2023-02-16T22:06:58.871Z,30.10
2023-02-16T22:12:02.233Z,30.50
2023-02-16T22:17:08.171Z,32.10
2023-02-16T22:22:12.035Z,31.20
2023-02-16T22:27:16.129Z,31.20
2023-02-16T22:32:19.853Z,32.70
2023-02-16T22:37:23.495Z,33.80
2023-02-16T22:42:26.899Z,29.70
2023-02-16T22:47:31.608Z,32.00
2023-02-16T22:52:36.734Z,32.70
2023-02-16T22:57:40.491Z,32.40
2023-02-16T23:02:43.883Z,32.20
2023-02-16T23:07:47.263Z,33.90
2023-02-16T23:12:50.623Z,31.90
2023-02-16T23:17:54.062Z,31.90
2023-02-16T23:22:57.680Z,32.70
2023-02-16T23:28:03.088Z,34.60
2023-02-16T23:33:06.565Z,33.50
2023-02-16T23:38:13.967Z,34.20
2023-02-16T23:43:17.446Z,32.70
2023-02-16T23:48:21.444Z,31.00
2023-02-16T23:53:26.703Z,33.30
2023-02-16T23:58:32.753Z,33.60
